Etusivu
METAR-TAF:

METAR-TAF

Lentoasemat :

Berlevåg, Norja

Leveyspiiri: 70-52N, Pituuspiiri: 029-02E, korkeus merenpinnasta: 1 m

Tämänhetkinen sää

Tämä raportti tehtiin 7 tuntia ja 49 minuuttia sitten, kello 10.50 UTC
Tuuli 17 kn etelästä/lounaasta
Lämpötila 10°C
Kosteus 82%
Ilmanpaine 1025 hPa
Näkyvyys 10 km tai enemmän
Hajanaisia pilviä 2000 ft:n korkeudessa
Hajonneita pilviä 3000 ft:n korkeudessa
heikkoja vesikuuroja

METAR: ENBV 221050Z 20017KT 9999 -SHRA SCT020 BKN030 10/07 Q1025

Aika: 20:39 (18:39 UTC)

Sääennuste

Tämä raportti tehtiin 10 tuntia ja 39 minuuttia sitten, kello 08.00 UTC
Ennuste voimassa 22. päivästä klo 09 UTC - 22. päivään klo 12 UTC
Tuuli 18 kn etelästä/lounaasta
Näkyvyys 10 km tai enemmän
Muutamia pilviä 4000 ft:n korkeudessa

TAF: ENBV 220800Z 2209/2212 20018KT 9999 FEW040

Säähavainnot ja -ennusteet yli 4000 lentoasemalta (METAR- ja TAF-raportit).

Käytössä olevat sääasemat on merkitty karttaan keltaisilla ja punaisilla pisteillä.

Aseta hiiri pisteen päälle nähdäksesi sääaseman nimen.

Klikkaa sitten nähdäksesi säähavainnot ja -ennusteet.

Kartan vaihtaminen: klikkaa mustalla rastilla varustettuja vihreitä pisteitä, niin voit zoomata sisään; viivalla varustettua vihreää pistettä, niin voit zoomata ulos tai vihreitä nuolia, niin pääset viereisille kartoille.


METAR-TAF: